sensor_id;sensor_type;location;lat;lon;timestamp;P1;durP1;ratioP1;P2;durP2;ratioP2
12554;SDS011;6343;50.868;4.700;2023-07-28T00:02:20;4.10;;;1.50;;
12554;SDS011;6343;50.868;4.700;2023-07-28T00:04:46;1.70;;;1.60;;
12554;SDS011;6343;50.868;4.700;2023-07-28T00:07:12;2.10;;;1.63;;
12554;SDS011;6343;50.868;4.700;2023-07-28T00:09:38;2.40;;;1.53;;
12554;SDS011;6343;50.868;4.700;2023-07-28T00:12:04;1.70;;;1.47;;
12554;SDS011;6343;50.868;4.700;2023-07-28T00:14:30;2.27;;;1.53;;
12554;SDS011;6343;50.868;4.700;2023-07-28T00:16:56;3.70;;;1.50;;
12554;SDS011;6343;50.868;4.700;2023-07-28T00:19:23;1.77;;;1.63;;
12554;SDS011;6343;50.868;4.700;2023-07-28T00:21:49;1.70;;;1.60;;
12554;SDS011;6343;50.868;4.700;2023-07-28T00:24:16;2.83;;;2.03;;
12554;SDS011;6343;50.868;4.700;2023-07-28T00:26:42;1.83;;;1.50;;
12554;SDS011;6343;50.868;4.700;2023-07-28T00:29:09;1.97;;;1.80;;
12554;SDS011;6343;50.868;4.700;2023-07-28T00:31:35;2.20;;;1.83;;
12554;SDS011;6343;50.868;4.700;2023-07-28T00:34:01;4.73;;;1.63;;
12554;SDS011;6343;50.868;4.700;2023-07-28T00:36:28;3.10;;;1.67;;
12554;SDS011;6343;50.868;4.700;2023-07-28T00:38:54;2.50;;;1.80;;
12554;SDS011;6343;50.868;4.700;2023-07-28T00:41:20;4.13;;;1.77;;
12554;SDS011;6343;50.868;4.700;2023-07-28T00:43:46;1.93;;;1.73;;
12554;SDS011;6343;50.868;4.700;2023-07-28T00:46:12;2.23;;;1.83;;
12554;SDS011;6343;50.868;4.700;2023-07-28T00:48:38;3.20;;;1.60;;
12554;SDS011;6343;50.868;4.700;2023-07-28T00:51:05;2.40;;;1.80;;
12554;SDS011;6343;50.868;4.700;2023-07-28T00:53:31;3.40;;;1.80;;
12554;SDS011;6343;50.868;4.700;2023-07-28T00:55:58;2.70;;;1.70;;
12554;SDS011;6343;50.868;4.700;2023-07-28T00:58:24;3.87;;;2.00;;
12554;SDS011;6343;50.868;4.700;2023-07-28T01:00:50;1.90;;;1.43;;
12554;SDS011;6343;50.868;4.700;2023-07-28T01:03:17;5.87;;;2.00;;
12554;SDS011;6343;50.868;4.700;2023-07-28T01:08:30;2.57;;;2.00;;
12554;SDS011;6343;50.868;4.700;2023-07-28T01:10:58;1.73;;;1.63;;
12554;SDS011;6343;50.868;4.700;2023-07-28T01:13:24;3.33;;;2.10;;
12554;SDS011;6343;50.868;4.700;2023-07-28T01:15:50;3.67;;;2.23;;
12554;SDS011;6343;50.868;4.700;2023-07-28T01:18:17;4.53;;;1.90;;
12554;SDS011;6343;50.868;4.700;2023-07-28T01:20:43;2.63;;;1.77;;
12554;SDS011;6343;50.868;4.700;2023-07-28T01:23:19;3.43;;;1.60;;
12554;SDS011;6343;50.868;4.700;2023-07-28T01:25:50;1.83;;;1.57;;
12554;SDS011;6343;50.868;4.700;2023-07-28T01:28:21;1.67;;;1.40;;
12554;SDS011;6343;50.868;4.700;2023-07-28T01:30:48;3.73;;;2.47;;
12554;SDS011;6343;50.868;4.700;2023-07-28T01:33:14;2.40;;;1.50;;
12554;SDS011;6343;50.868;4.700;2023-07-28T01:35:40;3.33;;;1.93;;
12554;SDS011;6343;50.868;4.700;2023-07-28T01:38:06;4.40;;;1.97;;
12554;SDS011;6343;50.868;4.700;2023-07-28T01:40:33;2.27;;;1.90;;
12554;SDS011;6343;50.868;4.700;2023-07-28T01:42:59;2.53;;;1.90;;
12554;SDS011;6343;50.868;4.700;2023-07-28T01:45:25;3.63;;;1.97;;
12554;SDS011;6343;50.868;4.700;2023-07-28T01:47:51;6.00;;;2.00;;
12554;SDS011;6343;50.868;4.700;2023-07-28T01:50:17;5.30;;;2.10;;
12554;SDS011;6343;50.868;4.700;2023-07-28T01:52:44;8.33;;;2.47;;
12554;SDS011;6343;50.868;4.700;2023-07-28T01:55:10;5.77;;;2.03;;
12554;SDS011;6343;50.868;4.700;2023-07-28T01:57:38;2.33;;;2.13;;
12554;SDS011;6343;50.868;4.700;2023-07-28T02:00:04;3.23;;;2.10;;
12554;SDS011;6343;50.868;4.700;2023-07-28T02:02:30;3.60;;;2.10;;
12554;SDS011;6343;50.868;4.700;2023-07-28T02:04:56;4.40;;;2.30;;
12554;SDS011;6343;50.868;4.700;2023-07-28T02:07:23;2.30;;;2.00;;
12554;SDS011;6343;50.868;4.700;2023-07-28T02:09:49;2.90;;;2.30;;
12554;SDS011;6343;50.868;4.700;2023-07-28T02:12:15;3.13;;;2.20;;
12554;SDS011;6343;50.868;4.700;2023-07-28T02:14:41;4.37;;;2.20;;
12554;SDS011;6343;50.868;4.700;2023-07-28T02:17:07;5.00;;;2.53;;
12554;SDS011;6343;50.868;4.700;2023-07-28T02:19:33;3.57;;;2.33;;
12554;SDS011;6343;50.868;4.700;2023-07-28T02:21:59;3.07;;;2.30;;
12554;SDS011;6343;50.868;4.700;2023-07-28T02:24:25;3.63;;;2.17;;
12554;SDS011;6343;50.868;4.700;2023-07-28T02:26:51;2.80;;;2.50;;
12554;SDS011;6343;50.868;4.700;2023-07-28T02:29:19;3.07;;;2.23;;
12554;SDS011;6343;50.868;4.700;2023-07-28T02:31:45;6.13;;;2.53;;
12554;SDS011;6343;50.868;4.700;2023-07-28T02:34:11;4.17;;;2.10;;
12554;SDS011;6343;50.868;4.700;2023-07-28T02:36:37;4.20;;;2.30;;
12554;SDS011;6343;50.868;4.700;2023-07-28T02:39:03;4.13;;;2.60;;
12554;SDS011;6343;50.868;4.700;2023-07-28T02:41:29;4.53;;;2.53;;
12554;SDS011;6343;50.868;4.700;2023-07-28T02:43:55;4.10;;;2.40;;
12554;SDS011;6343;50.868;4.700;2023-07-28T02:46:22;4.57;;;2.93;;
12554;SDS011;6343;50.868;4.700;2023-07-28T02:48:48;7.37;;;3.07;;
12554;SDS011;6343;50.868;4.700;2023-07-28T02:51:14;5.10;;;2.67;;
12554;SDS011;6343;50.868;4.700;2023-07-28T02:53:40;3.73;;;2.37;;
12554;SDS011;6343;50.868;4.700;2023-07-28T02:56:06;3.47;;;2.73;;
12554;SDS011;6343;50.868;4.700;2023-07-28T02:58:32;4.53;;;3.00;;
12554;SDS011;6343;50.868;4.700;2023-07-28T03:00:58;5.20;;;2.53;;
12554;SDS011;6343;50.868;4.700;2023-07-28T03:03:24;3.93;;;2.80;;
12554;SDS011;6343;50.868;4.700;2023-07-28T03:05:53;3.10;;;2.23;;
12554;SDS011;6343;50.868;4.700;2023-07-28T03:08:19;5.03;;;2.57;;
12554;SDS011;6343;50.868;4.700;2023-07-28T03:10:46;4.00;;;2.87;;
12554;SDS011;6343;50.868;4.700;2023-07-28T03:13:12;4.17;;;2.70;;
12554;SDS011;6343;50.868;4.700;2023-07-28T03:15:38;3.97;;;2.70;;
12554;SDS011;6343;50.868;4.700;2023-07-28T03:18:04;5.33;;;2.87;;
12554;SDS011;6343;50.868;4.700;2023-07-28T03:20:30;3.63;;;2.50;;
12554;SDS011;6343;50.868;4.700;2023-07-28T03:22:56;3.77;;;2.93;;
12554;SDS011;6343;50.868;4.700;2023-07-28T03:25:22;5.23;;;2.50;;
12554;SDS011;6343;50.868;4.700;2023-07-28T03:27:48;2.80;;;2.27;;
12554;SDS011;6343;50.868;4.700;2023-07-28T03:30:14;2.50;;;2.30;;
12554;SDS011;6343;50.868;4.700;2023-07-28T03:32:40;4.47;;;2.90;;
12554;SDS011;6343;50.868;4.700;2023-07-28T03:35:07;4.63;;;2.03;;
12554;SDS011;6343;50.868;4.700;2023-07-28T03:37:34;5.80;;;2.50;;
12554;SDS011;6343;50.868;4.700;2023-07-28T03:40:00;4.00;;;2.33;;
12554;SDS011;6343;50.868;4.700;2023-07-28T03:42:26;3.57;;;2.40;;
12554;SDS011;6343;50.868;4.700;2023-07-28T03:44:52;3.20;;;2.20;;
12554;SDS011;6343;50.868;4.700;2023-07-28T03:47:19;2.80;;;2.20;;
12554;SDS011;6343;50.868;4.700;2023-07-28T03:49:45;3.57;;;2.10;;
12554;SDS011;6343;50.868;4.700;2023-07-28T03:52:11;3.00;;;1.97;;
12554;SDS011;6343;50.868;4.700;2023-07-28T03:54:37;3.63;;;2.40;;
12554;SDS011;6343;50.868;4.700;2023-07-28T03:57:03;3.70;;;2.40;;
12554;SDS011;6343;50.868;4.700;2023-07-28T03:59:29;3.50;;;2.30;;
12554;SDS011;6343;50.868;4.700;2023-07-28T04:01:55;3.47;;;2.20;;
12554;SDS011;6343;50.868;4.700;2023-07-28T04:04:22;5.70;;;2.20;;
12554;SDS011;6343;50.868;4.700;2023-07-28T04:06:48;3.80;;;2.00;;
12554;SDS011;6343;50.868;4.700;2023-07-28T04:09:16;3.50;;;2.40;;
12554;SDS011;6343;50.868;4.700;2023-07-28T04:11:42;3.63;;;2.33;;
12554;SDS011;6343;50.868;4.700;2023-07-28T04:14:08;3.50;;;2.30;;
12554;SDS011;6343;50.868;4.700;2023-07-28T04:16:34;4.17;;;2.40;;
12554;SDS011;6343;50.868;4.700;2023-07-28T04:19:00;2.63;;;2.20;;
12554;SDS011;6343;50.868;4.700;2023-07-28T04:21:27;3.13;;;2.00;;
12554;SDS011;6343;50.868;4.700;2023-07-28T04:23:53;5.27;;;1.87;;
12554;SDS011;6343;50.868;4.700;2023-07-28T04:26:19;3.37;;;2.10;;
12554;SDS011;6343;50.868;4.700;2023-07-28T04:28:45;5.37;;;2.33;;
12554;SDS011;6343;50.868;4.700;2023-07-28T04:31:11;2.20;;;1.93;;
12554;SDS011;6343;50.868;4.700;2023-07-28T04:33:38;2.03;;;1.53;;
12554;SDS011;6343;50.868;4.700;2023-07-28T04:36:06;2.57;;;1.90;;
12554;SDS011;6343;50.868;4.700;2023-07-28T04:38:32;2.80;;;1.93;;
12554;SDS011;6343;50.868;4.700;2023-07-28T04:40:58;2.30;;;1.80;;
12554;SDS011;6343;50.868;4.700;2023-07-28T04:43:24;2.77;;;2.03;;
12554;SDS011;6343;50.868;4.700;2023-07-28T04:45:50;3.53;;;1.93;;
12554;SDS011;6343;50.868;4.700;2023-07-28T04:48:16;3.73;;;2.20;;
12554;SDS011;6343;50.868;4.700;2023-07-28T04:50:43;5.10;;;2.40;;
12554;SDS011;6343;50.868;4.700;2023-07-28T04:53:10;3.57;;;2.00;;
12554;SDS011;6343;50.868;4.700;2023-07-28T04:55:36;2.40;;;1.80;;
12554;SDS011;6343;50.868;4.700;2023-07-28T04:58:02;5.57;;;1.93;;
12554;SDS011;6343;50.868;4.700;2023-07-28T05:00:28;5.27;;;2.57;;
12554;SDS011;6343;50.868;4.700;2023-07-28T05:02:54;2.63;;;1.87;;
12554;SDS011;6343;50.868;4.700;2023-07-28T05:05:20;2.67;;;1.90;;
12554;SDS011;6343;50.868;4.700;2023-07-28T05:07:46;2.40;;;1.73;;
12554;SDS011;6343;50.868;4.700;2023-07-28T05:10:12;2.40;;;1.90;;
12554;SDS011;6343;50.868;4.700;2023-07-28T05:12:38;2.70;;;1.90;;
12554;SDS011;6343;50.868;4.700;2023-07-28T05:15:05;2.50;;;2.03;;
12554;SDS011;6343;50.868;4.700;2023-07-28T05:17:35;2.80;;;2.10;;
12554;SDS011;6343;50.868;4.700;2023-07-28T05:20:01;4.43;;;2.00;;
12554;SDS011;6343;50.868;4.700;2023-07-28T05:22:27;3.80;;;2.40;;
12554;SDS011;6343;50.868;4.700;2023-07-28T05:24:53;6.67;;;2.40;;
12554;SDS011;6343;50.868;4.700;2023-07-28T05:27:19;2.80;;;2.30;;
12554;SDS011;6343;50.868;4.700;2023-07-28T05:29:45;3.60;;;2.20;;
12554;SDS011;6343;50.868;4.700;2023-07-28T05:32:12;2.97;;;2.00;;
12554;SDS011;6343;50.868;4.700;2023-07-28T05:34:38;5.07;;;2.70;;
12554;SDS011;6343;50.868;4.700;2023-07-28T05:37:04;2.67;;;2.47;;
12554;SDS011;6343;50.868;4.700;2023-07-28T05:39:30;4.17;;;2.70;;
12554;SDS011;6343;50.868;4.700;2023-07-28T05:41:56;3.23;;;2.67;;
12554;SDS011;6343;50.868;4.700;2023-07-28T05:44:22;3.33;;;2.50;;
12554;SDS011;6343;50.868;4.700;2023-07-28T05:46:48;4.73;;;3.00;;
12554;SDS011;6343;50.868;4.700;2023-07-28T05:49:15;4.13;;;2.20;;
12554;SDS011;6343;50.868;4.700;2023-07-28T05:51:41;4.73;;;2.30;;
12554;SDS011;6343;50.868;4.700;2023-07-28T05:54:07;5.23;;;2.33;;
12554;SDS011;6343;50.868;4.700;2023-07-28T05:57:08;3.70;;;2.03;;
12554;SDS011;6343;50.868;4.700;2023-07-28T05:59:34;3.20;;;1.70;;
12554;SDS011;6343;50.868;4.700;2023-07-28T06:02:00;1.87;;;1.47;;
12554;SDS011;6343;50.868;4.700;2023-07-28T06:04:27;1.50;;;1.40;;
12554;SDS011;6343;50.868;4.700;2023-07-28T06:06:53;2.67;;;1.40;;
12554;SDS011;6343;50.868;4.700;2023-07-28T06:09:19;1.53;;;1.30;;
12554;SDS011;6343;50.868;4.700;2023-07-28T06:11:45;1.63;;;1.23;;
12554;SDS011;6343;50.868;4.700;2023-07-28T06:14:11;1.67;;;1.20;;
12554;SDS011;6343;50.868;4.700;2023-07-28T06:16:37;1.73;;;1.20;;
12554;SDS011;6343;50.868;4.700;2023-07-28T06:19:03;2.93;;;1.40;;
12554;SDS011;6343;50.868;4.700;2023-07-28T06:21:29;1.00;;;0.90;;
12554;SDS011;6343;50.868;4.700;2023-07-28T06:23:55;2.50;;;0.90;;
12554;SDS011;6343;50.868;4.700;2023-07-28T06:26:21;1.17;;;0.97;;
12554;SDS011;6343;50.868;4.700;2023-07-28T06:28:47;1.97;;;0.80;;
12554;SDS011;6343;50.868;4.700;2023-07-28T06:31:14;1.10;;;1.00;;
12554;SDS011;6343;50.868;4.700;2023-07-28T06:33:40;0.80;;;0.80;;
12554;SDS011;6343;50.868;4.700;2023-07-28T06:36:06;1.33;;;0.90;;
12554;SDS011;6343;50.868;4.700;2023-07-28T06:38:32;2.93;;;1.07;;
12554;SDS011;6343;50.868;4.700;2023-07-28T06:40:58;6.13;;;1.07;;
12554;SDS011;6343;50.868;4.700;2023-07-28T06:43:25;1.03;;;0.90;;
12554;SDS011;6343;50.868;4.700;2023-07-28T06:45:52;1.93;;;1.00;;
12554;SDS011;6343;50.868;4.700;2023-07-28T06:48:18;2.90;;;1.00;;
12554;SDS011;6343;50.868;4.700;2023-07-28T06:50:44;1.13;;;0.90;;
12554;SDS011;6343;50.868;4.700;2023-07-28T06:53:10;1.40;;;1.20;;
12554;SDS011;6343;50.868;4.700;2023-07-28T06:55:36;1.37;;;1.00;;
12554;SDS011;6343;50.868;4.700;2023-07-28T06:58:04;2.30;;;0.97;;
12554;SDS011;6343;50.868;4.700;2023-07-28T07:00:30;1.23;;;1.10;;
12554;SDS011;6343;50.868;4.700;2023-07-28T07:02:57;1.67;;;1.10;;
12554;SDS011;6343;50.868;4.700;2023-07-28T07:05:23;3.00;;;1.10;;
12554;SDS011;6343;50.868;4.700;2023-07-28T07:07:49;1.30;;;1.20;;
12554;SDS011;6343;50.868;4.700;2023-07-28T07:10:15;1.00;;;0.90;;
12554;SDS011;6343;50.868;4.700;2023-07-28T07:12:41;2.33;;;1.30;;
12554;SDS011;6343;50.868;4.700;2023-07-28T07:15:07;1.13;;;1.03;;
12554;SDS011;6343;50.868;4.700;2023-07-28T07:17:34;2.80;;;0.97;;
12554;SDS011;6343;50.868;4.700;2023-07-28T07:20:00;1.53;;;1.20;;
12554;SDS011;6343;50.868;4.700;2023-07-28T07:22:26;1.40;;;1.10;;
12554;SDS011;6343;50.868;4.700;2023-07-28T07:24:53;2.57;;;1.43;;
12554;SDS011;6343;50.868;4.700;2023-07-28T07:27:21;1.50;;;1.40;;
12554;SDS011;6343;50.868;4.700;2023-07-28T07:29:47;3.87;;;1.37;;
12554;SDS011;6343;50.868;4.700;2023-07-28T07:32:13;2.50;;;1.47;;
12554;SDS011;6343;50.868;4.700;2023-07-28T07:34:41;1.37;;;1.27;;
12554;SDS011;6343;50.868;4.700;2023-07-28T07:37:07;1.57;;;1.20;;
12554;SDS011;6343;50.868;4.700;2023-07-28T07:39:33;1.50;;;1.30;;
12554;SDS011;6343;50.868;4.700;2023-07-28T07:42:01;4.40;;;1.80;;
12554;SDS011;6343;50.868;4.700;2023-07-28T07:44:27;1.97;;;1.67;;
12554;SDS011;6343;50.868;4.700;2023-07-28T07:46:53;4.20;;;1.63;;
12554;SDS011;6343;50.868;4.700;2023-07-28T07:49:19;1.53;;;1.10;;
12554;SDS011;6343;50.868;4.700;2023-07-28T07:51:45;1.50;;;1.10;;
12554;SDS011;6343;50.868;4.700;2023-07-28T07:54:11;2.13;;;0.60;;
12554;SDS011;6343;50.868;4.700;2023-07-28T07:56:41;0.70;;;0.70;;
12554;SDS011;6343;50.868;4.700;2023-07-28T07:59:07;0.50;;;0.50;;
12554;SDS011;6343;50.868;4.700;2023-07-28T08:01:33;0.90;;;0.80;;
12554;SDS011;6343;50.868;4.700;2023-07-28T08:03:59;3.60;;;1.17;;
12554;SDS011;6343;50.868;4.700;2023-07-28T08:06:25;0.63;;;0.50;;
12554;SDS011;6343;50.868;4.700;2023-07-28T08:08:51;1.87;;;0.77;;
12554;SDS011;6343;50.868;4.700;2023-07-28T08:11:18;0.80;;;0.70;;
12554;SDS011;6343;50.868;4.700;2023-07-28T08:13:45;0.90;;;0.80;;
12554;SDS011;6343;50.868;4.700;2023-07-28T08:16:13;1.73;;;1.10;;
12554;SDS011;6343;50.868;4.700;2023-07-28T08:18:39;1.30;;;1.20;;
12554;SDS011;6343;50.868;4.700;2023-07-28T08:21:06;1.73;;;1.40;;
12554;SDS011;6343;50.868;4.700;2023-07-28T08:23:32;1.93;;;1.50;;
12554;SDS011;6343;50.868;4.700;2023-07-28T08:25:58;3.17;;;1.70;;
12554;SDS011;6343;50.868;4.700;2023-07-28T08:28:24;2.43;;;1.63;;
12554;SDS011;6343;50.868;4.700;2023-07-28T08:30:56;2.70;;;1.40;;
12554;SDS011;6343;50.868;4.700;2023-07-28T08:33:23;2.37;;;1.60;;
12554;SDS011;6343;50.868;4.700;2023-07-28T08:35:49;2.07;;;1.50;;
12554;SDS011;6343;50.868;4.700;2023-07-28T08:38:15;1.50;;;1.10;;
12554;SDS011;6343;50.868;4.700;2023-07-28T08:40:43;1.80;;;1.53;;
12554;SDS011;6343;50.868;4.700;2023-07-28T08:43:09;2.03;;;1.50;;
12554;SDS011;6343;50.868;4.700;2023-07-28T08:45:36;1.73;;;1.30;;
12554;SDS011;6343;50.868;4.700;2023-07-28T08:48:02;2.33;;;1.50;;
12554;SDS011;6343;50.868;4.700;2023-07-28T08:50:29;1.47;;;1.20;;
12554;SDS011;6343;50.868;4.700;2023-07-28T08:52:56;1.67;;;1.30;;
12554;SDS011;6343;50.868;4.700;2023-07-28T08:55:22;3.53;;;1.40;;
12554;SDS011;6343;50.868;4.700;2023-07-28T08:57:48;1.13;;;1.00;;
12554;SDS011;6343;50.868;4.700;2023-07-28T09:00:14;1.10;;;1.00;;
12554;SDS011;6343;50.868;4.700;2023-07-28T09:02:42;2.20;;;1.30;;
12554;SDS011;6343;50.868;4.700;2023-07-28T09:05:21;1.07;;;0.97;;
12554;SDS011;6343;50.868;4.700;2023-07-28T09:07:49;2.60;;;1.20;;
12554;SDS011;6343;50.868;4.700;2023-07-28T09:10:15;1.50;;;1.17;;
12554;SDS011;6343;50.868;4.700;2023-07-28T09:12:48;1.00;;;0.87;;
12554;SDS011;6343;50.868;4.700;2023-07-28T09:15:14;2.07;;;1.00;;
12554;SDS011;6343;50.868;4.700;2023-07-28T09:17:44;2.70;;;1.17;;
12554;SDS011;6343;50.868;4.700;2023-07-28T09:20:14;0.90;;;0.80;;
12554;SDS011;6343;50.868;4.700;2023-07-28T09:22:41;1.67;;;0.90;;
12554;SDS011;6343;50.868;4.700;2023-07-28T09:25:11;1.13;;;0.70;;
12554;SDS011;6343;50.868;4.700;2023-07-28T09:27:38;1.53;;;0.80;;
12554;SDS011;6343;50.868;4.700;2023-07-28T09:30:04;1.07;;;0.80;;
12554;SDS011;6343;50.868;4.700;2023-07-28T09:32:32;2.17;;;0.87;;
12554;SDS011;6343;50.868;4.700;2023-07-28T09:35:13;1.10;;;0.83;;
12554;SDS011;6343;50.868;4.700;2023-07-28T09:37:40;0.70;;;0.70;;
12554;SDS011;6343;50.868;4.700;2023-07-28T09:40:11;0.57;;;0.57;;
12554;SDS011;6343;50.868;4.700;2023-07-28T09:42:37;1.13;;;1.03;;
12554;SDS011;6343;50.868;4.700;2023-07-28T09:45:04;1.93;;;1.03;;
12554;SDS011;6343;50.868;4.700;2023-07-28T09:47:32;1.57;;;1.20;;
12554;SDS011;6343;50.868;4.700;2023-07-28T09:49:59;1.33;;;1.17;;
12554;SDS011;6343;50.868;4.700;2023-07-28T09:52:28;3.33;;;1.30;;
12554;SDS011;6343;50.868;4.700;2023-07-28T09:54:56;2.07;;;1.37;;
12554;SDS011;6343;50.868;4.700;2023-07-28T09:57:24;1.50;;;1.40;;
12554;SDS011;6343;50.868;4.700;2023-07-28T09:59:51;4.77;;;2.20;;
12554;SDS011;6343;50.868;4.700;2023-07-28T10:02:20;2.60;;;1.87;;
12554;SDS011;6343;50.868;4.700;2023-07-28T10:04:46;1.70;;;1.60;;
12554;SDS011;6343;50.868;4.700;2023-07-28T10:07:12;2.13;;;1.93;;
12554;SDS011;6343;50.868;4.700;2023-07-28T10:09:39;2.10;;;1.90;;
12554;SDS011;6343;50.868;4.700;2023-07-28T10:12:05;5.83;;;2.33;;
12554;SDS011;6343;50.868;4.700;2023-07-28T10:14:34;3.07;;;1.93;;
12554;SDS011;6343;50.868;4.700;2023-07-28T10:17:03;2.60;;;2.27;;
12554;SDS011;6343;50.868;4.700;2023-07-28T10:19:29;3.50;;;2.90;;
12554;SDS011;6343;50.868;4.700;2023-07-28T10:21:59;5.07;;;2.63;;
12554;SDS011;6343;50.868;4.700;2023-07-28T10:27:10;1.93;;;1.73;;
12554;SDS011;6343;50.868;4.700;2023-07-28T10:29:37;2.90;;;1.90;;
12554;SDS011;6343;50.868;4.700;2023-07-28T10:32:03;1.63;;;1.53;;
12554;SDS011;6343;50.868;4.700;2023-07-28T10:34:29;1.80;;;1.70;;
12554;SDS011;6343;50.868;4.700;2023-07-28T10:36:56;5.13;;;2.10;;
12554;SDS011;6343;50.868;4.700;2023-07-28T10:39:24;1.60;;;1.50;;
12554;SDS011;6343;50.868;4.700;2023-07-28T10:44:29;3.27;;;1.40;;
12554;SDS011;6343;50.868;4.700;2023-07-28T10:46:55;1.80;;;1.23;;
12554;SDS011;6343;50.868;4.700;2023-07-28T10:49:21;1.50;;;1.40;;
12554;SDS011;6343;50.868;4.700;2023-07-28T10:51:47;2.50;;;1.23;;
12554;SDS011;6343;50.868;4.700;2023-07-28T10:54:14;1.00;;;0.90;;
12554;SDS011;6343;50.868;4.700;2023-07-28T10:56:43;1.20;;;1.10;;
12554;SDS011;6343;50.868;4.700;2023-07-28T10:59:10;1.00;;;1.00;;
12554;SDS011;6343;50.868;4.700;2023-07-28T11:01:36;1.17;;;1.07;;
12554;SDS011;6343;50.868;4.700;2023-07-28T11:04:16;1.43;;;1.00;;
12554;SDS011;6343;50.868;4.700;2023-07-28T11:06:49;1.80;;;0.97;;
12554;SDS011;6343;50.868;4.700;2023-07-28T11:09:17;3.27;;;1.10;;
12554;SDS011;6343;50.868;4.700;2023-07-28T11:11:43;1.10;;;1.00;;
12554;SDS011;6343;50.868;4.700;2023-07-28T11:14:10;1.30;;;0.90;;
12554;SDS011;6343;50.868;4.700;2023-07-28T11:16:37;1.00;;;0.80;;
12554;SDS011;6343;50.868;4.700;2023-07-28T11:19:07;1.45;;;0.90;;
12554;SDS011;6343;50.868;4.700;2023-07-28T11:21:37;1.10;;;1.00;;
12554;SDS011;6343;50.868;4.700;2023-07-28T11:24:03;0.95;;;0.93;;
12554;SDS011;6343;50.868;4.700;2023-07-28T11:26:29;2.97;;;1.20;;
12554;SDS011;6343;50.868;4.700;2023-07-28T11:28:56;1.10;;;1.00;;
12554;SDS011;6343;50.868;4.700;2023-07-28T11:31:25;1.17;;;1.08;;
12554;SDS011;6343;50.868;4.700;2023-07-28T11:33:51;1.63;;;1.33;;
12554;SDS011;6343;50.868;4.700;2023-07-28T11:36:24;1.50;;;1.40;;
12554;SDS011;6343;50.868;4.700;2023-07-28T11:38:52;1.27;;;1.17;;
12554;SDS011;6343;50.868;4.700;2023-07-28T11:41:19;2.55;;;1.25;;
12554;SDS011;6343;50.868;4.700;2023-07-28T11:43:47;4.00;;;0.90;;
12554;SDS011;6343;50.868;4.700;2023-07-28T11:49:14;2.70;;;1.55;;
12554;SDS011;6343;50.868;4.700;2023-07-28T11:51:48;2.00;;;1.60;;
12554;SDS011;6343;50.868;4.700;2023-07-28T11:54:15;1.90;;;1.60;;
12554;SDS011;6343;50.868;4.700;2023-07-28T11:56:45;2.20;;;2.00;;
12554;SDS011;6343;50.868;4.700;2023-07-28T11:59:11;4.80;;;1.73;;
12554;SDS011;6343;50.868;4.700;2023-07-28T12:01:57;1.85;;;1.70;;
12554;SDS011;6343;50.868;4.700;2023-07-28T12:04:27;5.20;;;1.70;;
12554;SDS011;6343;50.868;4.700;2023-07-28T12:07:27;1.45;;;1.35;;
12554;SDS011;6343;50.868;4.700;2023-07-28T12:12:22;3.85;;;1.70;;
12554;SDS011;6343;50.868;4.700;2023-07-28T12:14:49;2.47;;;1.80;;
12554;SDS011;6343;50.868;4.700;2023-07-28T12:17:18;1.73;;;1.63;;
12554;SDS011;6343;50.868;4.700;2023-07-28T12:19:55;2.40;;;1.80;;
12554;SDS011;6343;50.868;4.700;2023-07-28T12:22:21;2.30;;;1.80;;
12554;SDS011;6343;50.868;4.700;2023-07-28T12:24:47;1.67;;;1.57;;
12554;SDS011;6343;50.868;4.700;2023-07-28T12:27:13;1.50;;;1.40;;
12554;SDS011;6343;50.868;4.700;2023-07-28T12:29:41;2.08;;;1.65;;
12554;SDS011;6343;50.868;4.700;2023-07-28T12:32:07;2.20;;;1.67;;
12554;SDS011;6343;50.868;4.700;2023-07-28T12:34:33;1.73;;;1.60;;
12554;SDS011;6343;50.868;4.700;2023-07-28T12:36:59;1.85;;;1.63;;
12554;SDS011;6343;50.868;4.700;2023-07-28T12:39:26;2.00;;;1.65;;
12554;SDS011;6343;50.868;4.700;2023-07-28T12:41:52;2.10;;;1.88;;
12554;SDS011;6343;50.868;4.700;2023-07-28T12:44:21;3.47;;;1.58;;
12554;SDS011;6343;50.868;4.700;2023-07-28T12:46:47;1.67;;;1.58;;
12554;SDS011;6343;50.868;4.700;2023-07-28T12:49:13;2.15;;;1.90;;
12554;SDS011;6343;50.868;4.700;2023-07-28T12:51:40;1.88;;;1.65;;
12554;SDS011;6343;50.868;4.700;2023-07-28T12:54:06;6.63;;;1.80;;
12554;SDS011;6343;50.868;4.700;2023-07-28T12:56:32;5.30;;;1.88;;
12554;SDS011;6343;50.868;4.700;2023-07-28T12:58:59;1.70;;;1.55;;
12554;SDS011;6343;50.868;4.700;2023-07-28T13:01:25;4.45;;;1.65;;
12554;SDS011;6343;50.868;4.700;2023-07-28T13:03:51;1.83;;;1.63;;
12554;SDS011;6343;50.868;4.700;2023-07-28T13:06:18;1.33;;;1.23;;
12554;SDS011;6343;50.868;4.700;2023-07-28T13:08:45;1.80;;;1.50;;
12554;SDS011;6343;50.868;4.700;2023-07-28T13:11:11;1.80;;;1.30;;
12554;SDS011;6343;50.868;4.700;2023-07-28T13:13:39;2.55;;;1.50;;
12554;SDS011;6343;50.868;4.700;2023-07-28T13:16:05;1.73;;;1.40;;
12554;SDS011;6343;50.868;4.700;2023-07-28T13:18:32;1.90;;;1.17;;
12554;SDS011;6343;50.868;4.700;2023-07-28T13:20:58;2.17;;;1.23;;
12554;SDS011;6343;50.868;4.700;2023-07-28T13:23:24;2.53;;;1.23;;
12554;SDS011;6343;50.868;4.700;2023-07-28T13:25:51;1.90;;;1.50;;
12554;SDS011;6343;50.868;4.700;2023-07-28T13:28:17;1.77;;;1.42;;
12554;SDS011;6343;50.868;4.700;2023-07-28T13:30:44;1.77;;;1.35;;
12554;SDS011;6343;50.868;4.700;2023-07-28T13:33:10;1.33;;;1.20;;
12554;SDS011;6343;50.868;4.700;2023-07-28T13:35:36;2.45;;;1.38;;
12554;SDS011;6343;50.868;4.700;2023-07-28T13:38:02;1.55;;;1.15;;
12554;SDS011;6343;50.868;4.700;2023-07-28T13:40:28;1.50;;;1.40;;
12554;SDS011;6343;50.868;4.700;2023-07-28T13:42:55;1.45;;;1.15;;
12554;SDS011;6343;50.868;4.700;2023-07-28T13:45:21;1.70;;;1.40;;
12554;SDS011;6343;50.868;4.700;2023-07-28T13:47:47;1.17;;;1.05;;
12554;SDS011;6343;50.868;4.700;2023-07-28T13:50:13;1.50;;;1.02;;
12554;SDS011;6343;50.868;4.700;2023-07-28T13:52:39;3.03;;;1.30;;
12554;SDS011;6343;50.868;4.700;2023-07-28T13:55:06;1.55;;;1.40;;
12554;SDS011;6343;50.868;4.700;2023-07-28T13:57:32;2.05;;;1.23;;
12554;SDS011;6343;50.868;4.700;2023-07-28T13:59:58;13.10;;;2.75;;
12554;SDS011;6343;50.868;4.700;2023-07-28T14:02:24;2.38;;;1.77;;
12554;SDS011;6343;50.868;4.700;2023-07-28T14:04:50;2.55;;;1.40;;
12554;SDS011;6343;50.868;4.700;2023-07-28T14:07:16;4.10;;;1.27;;
12554;SDS011;6343;50.868;4.700;2023-07-28T14:09:42;1.58;;;1.10;;
12554;SDS011;6343;50.868;4.700;2023-07-28T14:12:09;2.47;;;1.20;;
12554;SDS011;6343;50.868;4.700;2023-07-28T14:14:35;1.88;;;1.40;;
12554;SDS011;6343;50.868;4.700;2023-07-28T14:17:01;5.03;;;1.05;;
12554;SDS011;6343;50.868;4.700;2023-07-28T14:19:27;4.20;;;1.30;;
12554;SDS011;6343;50.868;4.700;2023-07-28T14:21:53;1.60;;;1.20;;
12554;SDS011;6343;50.868;4.700;2023-07-28T14:24:19;3.05;;;1.75;;
12554;SDS011;6343;50.868;4.700;2023-07-28T14:26:45;1.08;;;0.93;;
12554;SDS011;6343;50.868;4.700;2023-07-28T14:29:11;1.20;;;0.82;;
12554;SDS011;6343;50.868;4.700;2023-07-28T14:31:37;1.90;;;1.10;;
12554;SDS011;6343;50.868;4.700;2023-07-28T14:34:03;2.83;;;1.17;;
12554;SDS011;6343;50.868;4.700;2023-07-28T14:36:29;2.65;;;0.95;;
12554;SDS011;6343;50.868;4.700;2023-07-28T14:38:55;1.30;;;1.17;;
12554;SDS011;6343;50.868;4.700;2023-07-28T14:41:21;1.42;;;1.20;;
12554;SDS011;6343;50.868;4.700;2023-07-28T14:43:47;1.42;;;1.17;;
12554;SDS011;6343;50.868;4.700;2023-07-28T14:46:14;1.63;;;1.27;;
12554;SDS011;6343;50.868;4.700;2023-07-28T14:48:40;3.30;;;1.20;;
12554;SDS011;6343;50.868;4.700;2023-07-28T14:51:06;2.65;;;1.30;;
12554;SDS011;6343;50.868;4.700;2023-07-28T14:55:59;1.17;;;1.08;;
12554;SDS011;6343;50.868;4.700;2023-07-28T14:58:25;2.92;;;1.55;;
12554;SDS011;6343;50.868;4.700;2023-07-28T15:00:51;2.00;;;1.33;;
12554;SDS011;6343;50.868;4.700;2023-07-28T15:03:17;1.95;;;1.20;;
12554;SDS011;6343;50.868;4.700;2023-07-28T15:05:44;1.45;;;1.00;;
12554;SDS011;6343;50.868;4.700;2023-07-28T15:08:10;1.75;;;1.10;;
12554;SDS011;6343;50.868;4.700;2023-07-28T15:10:36;4.28;;;1.20;;
12554;SDS011;6343;50.868;4.700;2023-07-28T15:13:02;3.45;;;1.20;;
12554;SDS011;6343;50.868;4.700;2023-07-28T15:15:28;1.50;;;1.13;;